Time;durP1;ratioP1;P1;durP2;ratioP2;P2;SDS_P1;SDS_P2;PMS_P1;PMS_P2;Temp;Humidity;BMP_temperature;BMP_pressure;BME280_temperature;BME280_humidity;BME280_pressure;Samples;Min_cycle;Max_cycle;Signal;HPM_P1;HPM_P2
2023/03/12 00:01:22;;;;;;;16.80;15.17;;;2.40;99.90;;;;;;5087028;28;20801;-68
2023/03/12 00:03:50;;;;;;;23.47;15.77;;;2.40;99.90;;;;;;5088018;28;20495;-69
2023/03/12 00:06:18;;;;;;;17.90;15.90;;;2.50;99.90;;;;;;5091047;28;20616;-70
2023/03/12 00:08:46;;;;;;;19.33;17.67;;;2.50;99.90;;;;;;5094532;28;20949;-71
2023/03/12 00:11:15;;;;;;;17.17;15.90;;;2.50;99.90;;;;;;5092383;28;20458;-68
2023/03/12 00:13:42;;;;;;;20.17;16.10;;;2.50;99.90;;;;;;5089214;28;20526;-69
2023/03/12 00:16:11;;;;;;;20.13;16.70;;;2.50;99.90;;;;;;5090637;28;21101;-68
2023/03/12 00:18:38;;;;;;;18.40;16.57;;;2.50;99.90;;;;;;5088546;28;20473;-70
2023/03/12 00:21:05;;;;;;;22.30;16.20;;;2.50;99.90;;;;;;5094760;28;20499;-70
2023/03/12 00:23:32;;;;;;;21.37;15.97;;;2.50;99.90;;;;;;5087594;28;20462;-71
2023/03/12 00:26:02;;;;;;;19.20;16.40;;;2.60;99.90;;;;;;5091218;28;20469;-69
2023/03/12 00:28:29;;;;;;;17.57;15.83;;;2.50;99.90;;;;;;5087971;28;20541;-69
2023/03/12 00:30:57;;;;;;;18.03;16.20;;;2.60;99.90;;;;;;5094020;28;20462;-68
2023/03/12 00:33:24;;;;;;;21.93;16.90;;;2.50;99.90;;;;;;5091532;28;20545;-68
2023/03/12 00:35:51;;;;;;;27.40;16.80;;;2.50;99.90;;;;;;5097868;28;20468;-71
2023/03/12 00:38:18;;;;;;;17.73;16.43;;;2.50;99.90;;;;;;5091489;28;20663;-71
2023/03/12 00:40:45;;;;;;;20.17;16.87;;;2.40;99.90;;;;;;5087768;28;20953;-70
2023/03/12 00:43:14;;;;;;;18.33;16.73;;;2.40;99.90;;;;;;5091873;28;20901;-70
2023/03/12 00:45:41;;;;;;;18.17;16.67;;;2.40;99.90;;;;;;5089675;28;21180;-69
2023/03/12 00:48:07;;;;;;;18.30;16.60;;;2.40;99.90;;;;;;5089973;28;20457;-71
2023/03/12 00:50:34;;;;;;;19.93;17.23;;;2.40;99.90;;;;;;5086510;28;20466;-68
2023/03/12 00:53:01;;;;;;;18.10;16.80;;;2.40;99.90;;;;;;5090299;28;20469;-70
2023/03/12 00:55:28;;;;;;;17.00;15.63;;;2.40;99.90;;;;;;5085958;28;20511;-69
2023/03/12 00:57:55;;;;;;;17.43;16.20;;;2.40;99.90;;;;;;5086769;28;20466;-69
2023/03/12 01:00:24;;;;;;;19.33;17.47;;;2.40;99.90;;;;;;5094007;28;20833;-68
2023/03/12 01:02:51;;;;;;;22.73;17.80;;;2.40;99.90;;;;;;5097605;28;20825;-70
2023/03/12 01:05:18;;;;;;;22.50;17.40;;;2.40;99.90;;;;;;5087591;28;20468;-71
2023/03/12 01:07:45;;;;;;;17.67;16.30;;;2.40;99.90;;;;;;5089769;28;20526;-70
2023/03/12 01:10:14;;;;;;;18.03;16.60;;;2.40;99.90;;;;;;5089975;28;20464;-68
2023/03/12 01:12:41;;;;;;;19.00;17.27;;;2.30;99.90;;;;;;5084754;28;20575;-68
2023/03/12 01:15:09;;;;;;;18.60;16.83;;;2.30;99.90;;;;;;5094094;28;20539;-70
2023/03/12 01:17:37;;;;;;;17.50;16.20;;;2.30;99.90;;;;;;5101905;28;20467;-69
2023/03/12 01:20:05;;;;;;;18.23;16.80;;;2.30;99.90;;;;;;5097284;28;20499;-71
2023/03/12 01:22:31;;;;;;;17.47;15.77;;;2.20;99.90;;;;;;5112645;28;20445;-70
2023/03/12 01:24:58;;;;;;;18.67;16.83;;;2.20;99.90;;;;;;5112548;28;20973;-70
2023/03/12 01:27:25;;;;;;;18.40;16.60;;;2.20;99.90;;;;;;5111884;28;20822;-68
2023/03/12 01:29:52;;;;;;;24.97;16.97;;;2.10;99.90;;;;;;5113115;28;20461;-71
2023/03/12 01:32:19;;;;;;;18.13;16.47;;;2.10;99.90;;;;;;5112731;28;20521;-69
2023/03/12 01:34:47;;;;;;;17.23;15.47;;;2.00;99.90;;;;;;5111645;28;20461;-69
2023/03/12 01:37:14;;;;;;;18.83;15.73;;;2.10;99.90;;;;;;5112422;28;20450;-70
2023/03/12 01:39:42;;;;;;;18.10;16.60;;;2.10;99.90;;;;;;5112032;28;20481;-69
2023/03/12 01:42:09;;;;;;;17.00;15.50;;;2.10;99.90;;;;;;5112200;28;20465;-70
2023/03/12 01:44:50;;;;;;;17.87;16.13;;;2.10;99.90;;;;;;5112852;28;20461;-69
2023/03/12 01:47:17;;;;;;;25.97;16.00;;;2.10;99.90;;;;;;5111324;28;20496;-71
2023/03/12 01:49:47;;;;;;;20.20;16.90;;;2.10;99.90;;;;;;5110870;28;20523;-69
2023/03/12 01:52:16;;;;;;;21.83;16.07;;;2.10;99.90;;;;;;5112086;28;20856;-69
2023/03/12 01:54:47;;;;;;;18.43;16.50;;;2.20;99.90;;;;;;5110437;28;20567;-70
2023/03/12 01:57:16;;;;;;;18.17;16.13;;;2.20;99.90;;;;;;5111642;28;20457;-69
2023/03/12 01:59:47;;;;;;;17.50;15.93;;;2.20;99.90;;;;;;5112009;28;20481;-71
2023/03/12 02:02:15;;;;;;;28.67;15.87;;;2.20;99.90;;;;;;5112427;28;20453;-69
2023/03/12 02:04:44;;;;;;;30.10;16.33;;;2.20;99.90;;;;;;5110922;28;20445;-70
2023/03/12 02:07:14;;;;;;;18.37;16.13;;;2.30;99.90;;;;;;5111360;28;20761;-71
2023/03/12 02:09:44;;;;;;;17.00;15.50;;;2.30;99.90;;;;;;5111663;28;20634;-70
2023/03/12 02:12:12;;;;;;;31.67;16.20;;;2.30;99.90;;;;;;5110530;28;20453;-68
2023/03/12 02:14:39;;;;;;;17.30;15.40;;;2.30;99.90;;;;;;5111868;28;20518;-70
2023/03/12 02:17:06;;;;;;;16.37;14.80;;;2.40;99.90;;;;;;5111551;28;20924;-71
2023/03/12 02:19:41;;;;;;;17.73;15.83;;;2.40;99.90;;;;;;5112860;28;20449;-68
2023/03/12 02:22:08;;;;;;;16.60;14.87;;;2.40;99.90;;;;;;5093401;28;20482;-69
2023/03/12 02:24:43;;;;;;;16.67;15.00;;;2.40;99.90;;;;;;5097260;28;20526;-71
2023/03/12 02:27:12;;;;;;;17.03;15.20;;;2.40;99.90;;;;;;5094585;28;20556;-70
2023/03/12 02:29:40;;;;;;;18.03;15.03;;;2.50;99.90;;;;;;5093547;28;20466;-71
2023/03/12 02:32:09;;;;;;;18.80;15.87;;;2.50;99.90;;;;;;5091232;28;20982;-71
2023/03/12 02:34:36;;;;;;;18.23;15.10;;;2.50;99.90;;;;;;5096468;28;20826;-68
2023/03/12 02:37:03;;;;;;;18.47;16.50;;;2.50;99.90;;;;;;5092700;28;20473;-69
2023/03/12 02:39:30;;;;;;;16.90;15.40;;;2.50;99.90;;;;;;5089092;28;20466;-69
2023/03/12 02:41:59;;;;;;;16.30;14.77;;;2.50;99.90;;;;;;5087187;28;20857;-69
2023/03/12 02:44:30;;;;;;;17.27;14.87;;;2.50;99.90;;;;;;5094756;28;20461;-70
2023/03/12 02:46:58;;;;;;;16.27;14.60;;;2.60;99.90;;;;;;5095220;28;20468;-69
2023/03/12 02:49:28;;;;;;;16.97;15.63;;;2.60;99.90;;;;;;5086391;28;20531;-70
2023/03/12 02:51:56;;;;;;;19.00;15.63;;;2.60;99.90;;;;;;5092276;28;20557;-71
2023/03/12 02:54:24;;;;;;;17.60;15.80;;;2.50;99.90;;;;;;5089629;28;20461;-70
2023/03/12 02:56:51;;;;;;;17.33;14.80;;;2.50;99.90;;;;;;5090211;28;20523;-71
2023/03/12 02:59:20;;;;;;;16.30;14.80;;;2.50;99.90;;;;;;5090432;28;20446;-69
2023/03/12 03:01:53;;;;;;;18.37;15.90;;;2.50;99.90;;;;;;5093878;28;21065;-68
2023/03/12 03:04:20;;;;;;;16.27;14.80;;;2.50;99.90;;;;;;5091694;28;20457;-69
2023/03/12 03:06:47;;;;;;;18.17;15.30;;;2.60;99.90;;;;;;5086259;28;20470;-68
2023/03/12 03:09:14;;;;;;;15.80;14.50;;;2.50;99.90;;;;;;5092718;28;20462;-70
2023/03/12 03:11:41;;;;;;;19.83;15.20;;;2.50;99.90;;;;;;5094393;28;20828;-71
2023/03/12 03:14:09;;;;;;;18.53;15.07;;;2.40;99.90;;;;;;5095209;28;20484;-69
2023/03/12 03:16:35;;;;;;;25.33;14.90;;;2.40;99.90;;;;;;5087771;28;20454;-71
2023/03/12 03:19:04;;;;;;;30.97;15.17;;;2.40;99.90;;;;;;5096940;28;21022;-69
2023/03/12 03:21:31;;;;;;;17.30;14.83;;;2.40;99.90;;;;;;5100905;28;20496;-71
2023/03/12 03:23:57;;;;;;;15.63;14.23;;;2.50;99.90;;;;;;5093808;28;20460;-69
2023/03/12 03:26:25;;;;;;;16.60;14.73;;;2.50;99.90;;;;;;5091816;28;20496;-71
2023/03/12 03:28:52;;;;;;;22.60;14.73;;;2.50;99.90;;;;;;5088775;28;20853;-69
2023/03/12 03:31:20;;;;;;;15.63;14.30;;;2.50;99.90;;;;;;5091520;28;20470;-69
2023/03/12 03:33:47;;;;;;;16.33;14.90;;;2.60;99.90;;;;;;5094033;28;20458;-69
2023/03/12 03:36:17;;;;;;;16.17;14.70;;;2.50;99.90;;;;;;5091817;28;20583;-70
2023/03/12 03:38:48;;;;;;;18.20;14.73;;;2.60;99.90;;;;;;5085662;28;20467;-70
2023/03/12 03:43:58;;;;;;;16.40;15.03;;;2.50;99.90;;;;;;5095341;28;20801;-69
2023/03/12 03:46:25;;;;;;;16.03;14.90;;;2.50;99.90;;;;;;5092031;28;21354;-68
2023/03/12 03:48:52;;;;;;;16.50;14.50;;;2.60;99.90;;;;;;5093029;28;20961;-70
2023/03/12 03:51:21;;;;;;;16.03;14.73;;;2.60;99.90;;;;;;5093501;28;20515;-71
2023/03/12 03:53:48;;;;;;;14.97;13.87;;;2.70;99.90;;;;;;5091300;28;20515;-69
2023/03/12 03:56:16;;;;;;;15.77;14.57;;;2.70;99.90;;;;;;5086514;28;20466;-71
2023/03/12 03:58:42;;;;;;;15.50;14.30;;;2.60;99.90;;;;;;5090204;28;20527;-72
2023/03/12 04:01:10;;;;;;;17.73;14.53;;;2.70;99.90;;;;;;5089766;28;20873;-72
2023/03/12 04:03:36;;;;;;;16.00;14.87;;;2.70;99.90;;;;;;5088850;28;20458;-70
2023/03/12 04:06:05;;;;;;;15.63;14.33;;;2.80;99.90;;;;;;5090794;28;20466;-71
2023/03/12 04:08:35;;;;;;;14.70;13.80;;;2.70;99.90;;;;;;5095820;28;20469;-70
2023/03/12 04:11:07;;;;;;;15.67;14.47;;;2.80;99.90;;;;;;5090372;28;20461;-72
2023/03/12 04:13:34;;;;;;;16.20;14.93;;;2.90;99.90;;;;;;5091823;28;20489;-70
2023/03/12 04:16:01;;;;;;;15.20;14.03;;;2.90;99.90;;;;;;5085409;28;20446;-70
2023/03/12 04:18:28;;;;;;;17.67;16.07;;;2.90;99.90;;;;;;5085787;28;21081;-69
2023/03/12 04:20:55;;;;;;;19.47;16.77;;;2.90;99.90;;;;;;5085335;28;20502;-69
2023/03/12 04:23:22;;;;;;;17.77;16.20;;;2.90;99.90;;;;;;5097225;28;20465;-69
2023/03/12 04:25:50;;;;;;;24.87;16.40;;;2.90;99.90;;;;;;5095943;28;20996;-67
2023/03/12 04:28:16;;;;;;;15.80;14.90;;;2.90;99.90;;;;;;5098215;28;20454;-70
2023/03/12 04:30:43;;;;;;;15.90;14.93;;;2.80;99.90;;;;;;5088747;28;20470;-68
2023/03/12 04:33:10;;;;;;;18.23;15.90;;;2.80;99.90;;;;;;5086906;28;20535;-68
2023/03/12 04:35:37;;;;;;;16.70;15.50;;;2.70;99.90;;;;;;5084694;28;20578;-68
2023/03/12 04:38:04;;;;;;;17.03;15.27;;;2.70;99.90;;;;;;5088754;28;22062;-70
2023/03/12 04:40:30;;;;;;;17.63;16.07;;;2.80;99.90;;;;;;5096273;28;20552;-70
2023/03/12 04:42:58;;;;;;;17.73;16.03;;;2.80;99.90;;;;;;5094265;28;20489;-70
2023/03/12 04:45:25;;;;;;;18.10;16.60;;;2.90;99.90;;;;;;5090367;28;20511;-68
2023/03/12 04:47:52;;;;;;;17.03;15.50;;;2.80;99.90;;;;;;5090178;28;20538;-70
2023/03/12 04:50:19;;;;;;;17.57;16.00;;;2.80;99.90;;;;;;5089850;28;20460;-69
2023/03/12 04:52:46;;;;;;;18.03;16.60;;;2.70;99.90;;;;;;5092708;28;20476;-68
2023/03/12 04:55:13;;;;;;;21.20;15.60;;;2.70;99.90;;;;;;5093362;28;20504;-68
2023/03/12 04:57:40;;;;;;;18.40;15.97;;;2.60;99.90;;;;;;5091252;28;20511;-69
2023/03/12 05:00:12;;;;;;;16.73;15.63;;;2.60;99.90;;;;;;5086427;28;20461;-66
2023/03/12 05:02:39;;;;;;;17.53;15.80;;;2.60;99.90;;;;;;5090938;28;21087;-67
2023/03/12 05:05:06;;;;;;;17.90;15.97;;;2.60;99.90;;;;;;5098375;28;20468;-68
2023/03/12 05:07:34;;;;;;;16.80;15.23;;;2.60;99.90;;;;;;5093133;28;20884;-68
2023/03/12 05:10:00;;;;;;;16.97;15.40;;;2.60;99.90;;;;;;5094121;28;20974;-69
2023/03/12 05:12:28;;;;;;;22.47;15.87;;;2.70;99.90;;;;;;5093009;28;20912;-69
2023/03/12 05:14:55;;;;;;;23.37;17.47;;;2.60;99.90;;;;;;5087888;28;20481;-70
2023/03/12 05:17:24;;;;;;;18.10;16.30;;;2.60;99.90;;;;;;5098563;28;20468;-69
2023/03/12 05:19:51;;;;;;;26.43;16.50;;;2.60;99.90;;;;;;5095734;28;20461;-69
2023/03/12 05:22:18;;;;;;;18.17;15.70;;;2.50;99.90;;;;;;5096625;28;20490;-68
2023/03/12 05:24:44;;;;;;;20.97;15.70;;;2.60;99.90;;;;;;5098884;28;21101;-67
2023/03/12 05:27:11;;;;;;;19.30;17.20;;;2.60;99.90;;;;;;5099976;28;20515;-68
2023/03/12 05:29:38;;;;;;;17.30;15.73;;;2.70;99.90;;;;;;5098611;28;20469;-68
2023/03/12 05:32:07;;;;;;;15.97;14.87;;;2.70;99.90;;;;;;5092236;28;20465;-67
2023/03/12 05:34:36;;;;;;;15.30;14.30;;;2.70;99.90;;;;;;5091919;28;20469;-69
2023/03/12 05:37:03;;;;;;;15.53;14.40;;;2.60;99.90;;;;;;5091737;28;20519;-69
2023/03/12 05:39:30;;;;;;;18.30;13.90;;;2.60;99.90;;;;;;5099358;28;20455;-68
2023/03/12 05:41:58;;;;;;;14.70;13.60;;;2.60;99.90;;;;;;5099043;28;20504;-69
2023/03/12 05:44:26;;;;;;;13.07;12.33;;;2.70;99.90;;;;;;5099688;28;20966;-68
2023/03/12 05:46:53;;;;;;;18.10;16.40;;;2.60;99.90;;;;;;5093384;28;20469;-69
2023/03/12 05:49:21;;;;;;;15.10;13.73;;;2.60;99.90;;;;;;5098936;28;20465;-69
2023/03/12 05:51:50;;;;;;;12.47;11.63;;;2.60;99.90;;;;;;5090887;28;20466;-69
2023/03/12 05:54:18;;;;;;;12.93;12.03;;;2.60;99.90;;;;;;5092007;28;20462;-67
2023/03/12 05:56:44;;;;;;;12.23;11.20;;;2.60;99.90;;;;;;5092430;28;20462;-68
2023/03/12 05:59:11;;;;;;;12.33;11.30;;;2.50;99.90;;;;;;5089880;28;20462;-69
2023/03/12 06:01:39;;;;;;;13.13;11.80;;;2.50;99.90;;;;;;5089331;28;20493;-68
2023/03/12 06:04:05;;;;;;;12.70;10.47;;;2.50;99.90;;;;;;5094138;28;20460;-69
2023/03/12 06:06:36;;;;;;;11.60;10.40;;;2.50;99.90;;;;;;5091313;28;20466;-70
2023/03/12 06:09:06;;;;;;;9.80;8.93;;;2.50;99.90;;;;;;5099522;28;20548;-68
2023/03/12 06:11:33;;;;;;;9.43;8.50;;;2.60;99.90;;;;;;5091648;28;20473;-70
2023/03/12 06:14:00;;;;;;;15.40;8.80;;;2.60;99.90;;;;;;5093899;28;20867;-68
2023/03/12 06:16:29;;;;;;;10.37;8.10;;;2.60;99.90;;;;;;5091047;28;20465;-68
2023/03/12 06:18:57;;;;;;;10.93;7.93;;;2.60;99.90;;;;;;5094731;28;20555;-71
2023/03/12 06:21:27;;;;;;;12.27;9.00;;;2.70;99.90;;;;;;5086810;28;20996;-67
2023/03/12 06:23:54;;;;;;;11.07;9.50;;;2.70;99.90;;;;;;5099949;28;20469;-71
2023/03/12 06:26:23;;;;;;;13.73;8.70;;;2.80;99.90;;;;;;5090622;28;20980;-69
2023/03/12 06:28:51;;;;;;;14.73;7.63;;;2.90;99.90;;;;;;5095572;28;20453;-70
2023/03/12 06:31:18;;;;;;;19.57;9.70;;;2.90;99.90;;;;;;5092014;28;20485;-71
2023/03/12 06:33:46;;;;;;;15.93;8.57;;;2.90;99.90;;;;;;5087582;28;20462;-69
2023/03/12 06:36:13;;;;;;;12.03;8.37;;;2.90;99.90;;;;;;5092611;28;20458;-68
2023/03/12 06:38:40;;;;;;;17.77;8.10;;;2.90;99.90;;;;;;5090716;28;20468;-70
2023/03/12 06:41:09;;;;;;;10.10;7.47;;;3.00;99.90;;;;;;5096498;28;20886;-69
2023/03/12 06:43:38;;;;;;;22.10;9.67;;;3.10;99.90;;;;;;5098112;28;20500;-70
2023/03/12 06:46:06;;;;;;;8.27;7.47;;;3.10;99.90;;;;;;5089852;28;20458;-69
2023/03/12 06:48:35;;;;;;;11.33;7.33;;;3.10;99.90;;;;;;5088525;28;20965;-68
2023/03/12 06:51:02;;;;;;;12.73;8.57;;;3.10;99.90;;;;;;5089596;28;20470;-69
2023/03/12 06:53:30;;;;;;;17.17;7.60;;;3.10;99.90;;;;;;5097294;28;20945;-70
2023/03/12 06:55:56;;;;;;;20.80;8.70;;;3.20;99.90;;;;;;5089769;28;20594;-68
2023/03/12 06:58:24;;;;;;;7.60;6.90;;;3.20;99.90;;;;;;5090607;28;20458;-70
2023/03/12 07:00:54;;;;;;;10.10;8.87;;;3.30;99.90;;;;;;5093762;28;20483;-69
2023/03/12 07:03:21;;;;;;;15.07;7.90;;;3.30;99.90;;;;;;5092965;28;20506;-69
2023/03/12 07:05:49;;;;;;;9.10;8.20;;;3.40;99.90;;;;;;5092356;28;20468;-69
2023/03/12 07:08:17;;;;;;;9.40;8.50;;;3.40;99.90;;;;;;5088482;28;20519;-71
2023/03/12 07:10:44;;;;;;;10.00;7.90;;;3.40;99.90;;;;;;5094432;28;20505;-71
2023/03/12 07:13:11;;;;;;;13.63;8.07;;;3.40;99.90;;;;;;5094103;28;20485;-69
2023/03/12 07:15:38;;;;;;;9.07;8.33;;;3.40;99.90;;;;;;5092265;28;20461;-70
2023/03/12 07:18:07;;;;;;;8.27;7.47;;;3.50;99.90;;;;;;5089595;28;20988;-68
2023/03/12 07:20:36;;;;;;;11.73;8.53;;;3.60;99.90;;;;;;5086722;28;20939;-69
2023/03/12 07:23:03;;;;;;;18.50;8.40;;;3.50;99.90;;;;;;5090752;28;20496;-69
2023/03/12 07:25:30;;;;;;;15.83;9.00;;;3.60;99.90;;;;;;5095459;28;20470;-68
2023/03/12 07:27:57;;;;;;;10.70;8.53;;;3.60;99.90;;;;;;5095842;28;20458;-69
2023/03/12 07:30:24;;;;;;;9.40;8.70;;;3.70;99.90;;;;;;5093633;28;20470;-69
2023/03/12 07:32:51;;;;;;;9.97;9.03;;;3.70;99.90;;;;;;5085651;28;20873;-68
2023/03/12 07:35:19;;;;;;;10.90;9.77;;;3.70;99.90;;;;;;5086880;28;20481;-69
2023/03/12 07:37:47;;;;;;;9.70;8.90;;;3.70;99.90;;;;;;5086917;28;20464;-70
2023/03/12 07:40:13;;;;;;;13.70;8.90;;;3.70;99.90;;;;;;5085410;28;20486;-69
2023/03/12 07:42:40;;;;;;;18.33;10.57;;;3.80;99.90;;;;;;5086411;28;20989;-69
2023/03/12 07:45:08;;;;;;;15.83;9.70;;;3.90;99.90;;;;;;5094554;28;20464;-68
2023/03/12 07:47:35;;;;;;;14.23;10.90;;;3.90;99.90;;;;;;5089996;28;20464;-72
2023/03/12 07:50:01;;;;;;;17.53;10.80;;;3.90;99.90;;;;;;5089697;28;20470;-71
2023/03/12 07:52:30;;;;;;;12.53;11.13;;;4.00;99.90;;;;;;5088077;28;20956;-72
2023/03/12 07:54:57;;;;;;;16.93;11.80;;;3.90;99.90;;;;;;5092737;28;20982;-70
2023/03/12 07:57:24;;;;;;;17.70;12.13;;;4.00;99.90;;;;;;5091531;28;20471;-71
2023/03/12 07:59:51;;;;;;;19.33;12.77;;;4.00;99.90;;;;;;5096764;28;20485;-69
2023/03/12 08:02:19;;;;;;;24.13;13.00;;;3.90;99.90;;;;;;5088845;28;20542;-70
2023/03/12 08:04:45;;;;;;;21.80;13.83;;;4.00;99.90;;;;;;5090699;28;20460;-69
2023/03/12 08:07:13;;;;;;;17.63;15.70;;;4.10;99.90;;;;;;5086470;28;20551;-70
2023/03/12 08:09:41;;;;;;;17.67;16.37;;;4.20;99.90;;;;;;5094648;28;20465;-71
2023/03/12 08:12:09;;;;;;;19.83;18.30;;;4.30;99.90;;;;;;5093078;28;20976;-73
2023/03/12 08:14:36;;;;;;;20.67;18.80;;;4.40;99.90;;;;;;5090041;28;20458;-70
2023/03/12 08:17:02;;;;;;;22.17;20.10;;;4.30;99.90;;;;;;5090242;28;21162;-70
2023/03/12 08:19:29;;;;;;;22.30;20.20;;;4.40;99.90;;;;;;5090592;28;20480;-73
2023/03/12 08:21:57;;;;;;;23.97;21.20;;;4.20;99.90;;;;;;5099678;28;20482;-71
2023/03/12 08:24:24;;;;;;;21.67;19.97;;;4.30;99.90;;;;;;5096248;28;20459;-73
2023/03/12 08:26:52;;;;;;;25.47;19.57;;;4.20;99.90;;;;;;5095028;28;20458;-71
2023/03/12 08:29:19;;;;;;;20.90;19.10;;;4.30;99.90;;;;;;5097962;28;20949;-73
2023/03/12 08:31:46;;;;;;;20.33;18.70;;;4.30;99.90;;;;;;5100612;28;20491;-72
2023/03/12 08:34:13;;;;;;;20.50;18.87;;;4.40;99.90;;;;;;5092577;28;20462;-72
2023/03/12 08:36:40;;;;;;;19.50;18.10;;;4.50;99.90;;;;;;5089402;28;20471;-72
2023/03/12 08:39:07;;;;;;;19.40;17.53;;;4.40;99.90;;;;;;5092570;28;20460;-73
2023/03/12 08:41:33;;;;;;;19.97;18.30;;;4.40;99.90;;;;;;5095308;28;20460;-72
2023/03/12 08:44:01;;;;;;;18.23;17.03;;;4.50;99.90;;;;;;5091079;28;20471;-72
2023/03/12 08:46:29;;;;;;;18.50;17.13;;;4.50;99.90;;;;;;5092830;28;20461;-72
2023/03/12 08:48:57;;;;;;;18.83;17.47;;;4.60;99.90;;;;;;5093171;28;20555;-72
2023/03/12 08:51:23;;;;;;;20.10;18.60;;;4.60;99.90;;;;;;5088709;28;20461;-72
2023/03/12 08:53:50;;;;;;;18.80;17.60;;;4.70;99.90;;;;;;5091078;28;20465;-74
2023/03/12 08:56:17;;;;;;;19.47;17.97;;;4.80;99.90;;;;;;5089193;28;20886;-73
2023/03/12 08:58:44;;;;;;;18.33;17.17;;;4.80;99.90;;;;;;5095331;28;20924;-71
2023/03/12 09:01:13;;;;;;;19.50;18.10;;;4.90;99.90;;;;;;5094666;28;22114;-73
2023/03/12 09:03:41;;;;;;;18.20;16.80;;;5.00;99.90;;;;;;5093785;28;20484;-73
2023/03/12 09:06:13;;;;;;;18.90;17.27;;;5.10;99.90;;;;;;5092007;28;20495;-73
2023/03/12 09:08:40;;;;;;;19.57;17.70;;;5.10;99.90;;;;;;5096881;28;20738;-72
2023/03/12 09:11:08;;;;;;;20.77;18.90;;;5.30;99.90;;;;;;5098570;28;20453;-74
2023/03/12 09:13:35;;;;;;;18.13;16.83;;;5.30;99.90;;;;;;5093490;28;20468;-72
2023/03/12 09:16:04;;;;;;;18.37;16.83;;;5.50;99.90;;;;;;5087894;28;20456;-73
2023/03/12 09:18:33;;;;;;;18.37;16.80;;;5.60;99.90;;;;;;5091205;28;20545;-73
2023/03/12 09:21:01;;;;;;;18.17;16.50;;;5.60;99.90;;;;;;5099068;28;20482;-73
2023/03/12 09:23:28;;;;;;;19.73;17.87;;;5.60;99.90;;;;;;5091278;28;20588;-73
2023/03/12 09:25:56;;;;;;;20.27;18.77;;;5.70;99.90;;;;;;5092223;28;20901;-73
2023/03/12 09:28:22;;;;;;;25.97;23.47;;;5.80;99.90;;;;;;5096092;28;20469;-70
2023/03/12 09:30:50;;;;;;;20.20;18.40;;;5.80;99.90;;;;;;5092131;28;20727;-71
2023/03/12 09:33:17;;;;;;;17.97;16.67;;;6.00;99.90;;;;;;5082053;28;20460;-71
2023/03/12 09:35:45;;;;;;;17.20;15.83;;;6.20;99.90;;;;;;5091796;28;20466;-71
2023/03/12 09:38:13;;;;;;;15.90;14.17;;;6.50;99.90;;;;;;5091828;28;20464;-70
2023/03/12 09:40:46;;;;;;;14.60;13.50;;;6.60;99.90;;;;;;5093525;28;20456;-70
2023/03/12 09:43:19;;;;;;;13.77;12.77;;;6.80;99.90;;;;;;5089501;28;20511;-74
2023/03/12 09:45:47;;;;;;;12.67;11.87;;;7.00;99.90;;;;;;5087246;28;20469;-72
2023/03/12 09:48:16;;;;;;;12.53;11.53;;;7.20;99.90;;;;;;5091426;28;20480;-72
2023/03/12 09:50:47;;;;;;;12.97;12.17;;;7.30;99.90;;;;;;5087683;28;20450;-71
2023/03/12 09:53:23;;;;;;;12.40;11.57;;;7.30;99.90;;;;;;5083533;28;20457;-71
2023/03/12 09:55:54;;;;;;;12.37;11.47;;;7.40;99.90;;;;;;5094233;28;20472;-71
2023/03/12 09:58:27;;;;;;;12.73;11.63;;;7.70;99.90;;;;;;5092161;28;20458;-71
2023/03/12 10:00:58;;;;;;;11.77;10.87;;;7.70;99.90;;;;;;5087895;28;20454;-71
2023/03/12 10:03:59;;;;;;;13.90;12.27;;;7.80;99.90;;;;;;5085484;28;20496;-71
2023/03/12 10:06:33;;;;;;;11.97;10.90;;;7.80;99.90;;;;;;5079220;28;20847;-70
2023/03/12 10:09:16;;;;;;;14.37;12.33;;;7.80;99.90;;;;;;5088313;28;20500;-69
2023/03/12 10:11:52;;;;;;;13.27;12.00;;;7.90;99.90;;;;;;5093500;28;20967;-70
2023/03/12 10:14:36;;;;;;;16.43;13.70;;;8.00;99.90;;;;;;5087180;28;20468;-70
2023/03/12 10:17:16;;;;;;;20.37;13.67;;;8.10;99.90;;;;;;5088267;28;20481;-71
2023/03/12 10:19:55;;;;;;;16.90;15.07;;;8.10;99.90;;;;;;5091748;28;20457;-70
2023/03/12 10:22:37;;;;;;;14.63;13.20;;;8.30;99.90;;;;;;5087711;28;21008;-69
2023/03/12 10:25:14;;;;;;;15.23;13.47;;;8.30;99.90;;;;;;5092369;28;20461;-70
2023/03/12 10:27:41;;;;;;;20.50;12.03;;;8.40;99.90;;;;;;5091999;28;20469;-71
2023/03/12 10:30:16;;;;;;;14.33;12.73;;;8.50;99.90;;;;;;5093130;28;20476;-70
2023/03/12 10:32:48;;;;;;;23.30;13.27;;;8.50;99.90;;;;;;5094557;28;20485;-70
2023/03/12 10:35:17;;;;;;;18.93;13.40;;;8.60;99.90;;;;;;5092203;28;20876;-70
2023/03/12 10:37:47;;;;;;;21.23;13.37;;;8.60;99.90;;;;;;5092486;28;20463;-70
2023/03/12 10:40:16;;;;;;;27.30;14.60;;;8.70;99.90;;;;;;5091286;28;20479;-70
2023/03/12 10:42:43;;;;;;;17.20;13.97;;;8.80;99.90;;;;;;5091908;28;20493;-70
2023/03/12 10:45:29;;;;;;;26.60;16.40;;;8.80;99.90;;;;;;5090724;28;20949;-69
2023/03/12 10:48:00;;;;;;;29.00;15.00;;;8.80;99.90;;;;;;5088072;28;20864;-70
2023/03/12 10:50:28;;;;;;;27.87;15.90;;;8.80;99.90;;;;;;5091045;28;20453;-69
2023/03/12 10:53:14;;;;;;;19.73;15.30;;;9.00;99.90;;;;;;5086943;28;20466;-70
2023/03/12 10:55:41;;;;;;;29.30;15.20;;;9.10;99.90;;;;;;5086195;28;20954;-71
2023/03/12 10:58:22;;;;;;;20.47;13.67;;;9.10;99.90;;;;;;5087047;28;20460;-71
2023/03/12 11:00:56;;;;;;;25.10;14.23;;;9.20;99.90;;;;;;5088136;28;21091;-71
2023/03/12 11:03:24;;;;;;;30.33;14.20;;;9.30;99.90;;;;;;5084839;28;20510;-71
2023/03/12 11:05:53;;;;;;;33.13;16.37;;;9.30;99.90;;;;;;5093226;28;20461;-71
2023/03/12 11:08:26;;;;;;;26.77;14.07;;;9.30;99.90;;;;;;5090742;28;20485;-71
2023/03/12 11:10:54;;;;;;;28.73;15.50;;;9.30;99.90;;;;;;5088089;28;20466;-71
2023/03/12 11:13:27;;;;;;;32.90;17.70;;;9.40;99.90;;;;;;5089164;28;20854;-71
2023/03/12 11:15:56;;;;;;;28.00;15.30;;;9.50;99.90;;;;;;5085831;28;20458;-71
2023/03/12 11:18:32;;;;;;;46.43;16.47;;;9.60;99.90;;;;;;5088251;28;20462;-71
2023/03/12 11:21:14;;;;;;;34.93;15.80;;;9.80;99.90;;;;;;5089193;28;20465;-71
2023/03/12 11:23:47;;;;;;;34.47;16.27;;;9.90;99.90;;;;;;5086719;28;20843;-70
2023/03/12 11:26:18;;;;;;;29.27;13.93;;;9.80;99.90;;;;;;5088218;28;20560;-70
2023/03/12 11:28:47;;;;;;;42.53;17.00;;;9.90;99.90;;;;;;5087518;28;20490;-70
2023/03/12 11:31:22;;;;;;;32.27;15.77;;;9.80;99.90;;;;;;5084177;28;20962;-70
2023/03/12 11:33:50;;;;;;;49.70;15.70;;;9.90;99.90;;;;;;5084955;28;20552;-71
2023/03/12 11:36:30;;;;;;;36.77;16.70;;;10.10;99.90;;;;;;5092535;28;20542;-71
2023/03/12 11:39:04;;;;;;;41.03;17.07;;;10.20;99.90;;;;;;5092120;28;21026;-70
2023/03/12 11:41:44;;;;;;;56.33;17.17;;;10.30;99.90;;;;;;5086196;28;20540;-70
2023/03/12 11:44:25;;;;;;;38.73;16.73;;;10.10;99.90;;;;;;5087062;28;20500;-70
2023/03/12 11:47:03;;;;;;;33.30;14.07;;;10.40;99.90;;;;;;5085068;28;20460;-71
2023/03/12 11:49:41;;;;;;;41.17;13.70;;;10.60;99.90;;;;;;5077112;28;20561;-71
2023/03/12 11:52:18;;;;;;;46.00;14.73;;;10.60;99.90;;;;;;5083057;28;20803;-71
2023/03/12 11:55:12;;;;;;;33.57;11.90;;;10.60;99.90;;;;;;5077975;28;20461;-69
2023/03/12 11:58:01;;;;;;;38.70;12.90;;;10.70;99.90;;;;;;5083426;28;20473;-71
2023/03/12 12:00:33;;;;;;;39.50;13.97;;;10.80;99.90;;;;;;5085919;28;21016;-71
2023/03/12 12:03:34;;;;;;;33.50;13.50;;;10.90;99.90;;;;;;5083262;28;20971;-71
2023/03/12 12:06:05;;;;;;;39.83;12.40;;;11.10;99.90;;;;;;5084183;28;21153;-70
2023/03/12 12:08:58;;;;;;;30.27;12.40;;;11.10;99.90;;;;;;5086925;28;20885;-71
2023/03/12 12:11:33;;;;;;;25.50;12.30;;;11.30;99.90;;;;;;5089905;28;20523;-70
2023/03/12 12:14:12;;;;;;;36.67;11.30;;;11.20;99.90;;;;;;5090981;28;21271;-71
2023/03/12 12:16:51;;;;;;;29.83;9.40;;;11.20;99.90;;;;;;5094398;28;20469;-71
2023/03/12 12:19:30;;;;;;;32.27;11.90;;;11.30;99.90;;;;;;5086453;28;20464;-70
2023/03/12 12:22:07;;;;;;;20.97;10.60;;;11.40;99.90;;;;;;5084691;28;20567;-69
2023/03/12 12:24:51;;;;;;;28.63;11.60;;;11.50;99.90;;;;;;5088327;28;20490;-71
2023/03/12 12:27:23;;;;;;;34.30;10.93;;;12.00;99.90;;;;;;5085378;28;20465;-70
2023/03/12 12:30:12;;;;;;;26.70;9.87;;;12.60;99.90;;;;;;5087081;28;20546;-70
2023/03/12 12:33:03;;;;;;;20.67;10.20;;;12.80;99.90;;;;;;5086970;28;20685;-71
2023/03/12 12:35:35;;;;;;;23.60;9.80;;;12.50;99.90;;;;;;5089640;28;20541;-69
2023/03/12 12:38:07;;;;;;;23.40;10.97;;;12.50;99.90;;;;;;5085278;28;21075;-70
2023/03/12 12:40:37;;;;;;;27.50;11.20;;;12.50;99.90;;;;;;5084502;28;20462;-68
2023/03/12 12:43:20;;;;;;;18.43;9.80;;;12.40;99.90;;;;;;5088157;28;20493;-70
2023/03/12 12:45:50;;;;;;;24.23;10.00;;;12.30;99.90;;;;;;5088028;28;20458;-68
2023/03/12 12:48:20;;;;;;;20.13;9.33;;;12.10;99.90;;;;;;5089318;28;20547;-69
2023/03/12 12:51:03;;;;;;;18.80;9.97;;;12.00;99.90;;;;;;5087588;28;20466;-69
2023/03/12 12:53:38;;;;;;;17.73;8.73;;;11.90;99.90;;;;;;5086472;28;20493;-70